sensor_id;sensor_type;location;lat;lon;timestamp;pressure;altitude;pressure_sealevel;temperature;humidity
42603;BME280;28233;55.748;48.752;2022-10-16T00:01:59;100413.66;;;2.90;79.62
42603;BME280;28233;55.748;48.752;2022-10-16T00:04:02;100418.72;;;2.87;80.06
42603;BME280;28233;55.748;48.752;2022-10-16T00:06:05;100420.91;;;2.85;80.39
42603;BME280;28233;55.748;48.752;2022-10-16T00:08:12;100422.53;;;2.86;80.31
42603;BME280;28233;55.748;48.752;2022-10-16T00:10:15;100419.25;;;2.84;80.11
42603;BME280;28233;55.748;48.752;2022-10-16T00:12:18;100425.47;;;2.84;80.70
42603;BME280;28233;55.748;48.752;2022-10-16T00:14:21;100421.13;;;2.83;80.50
42603;BME280;28233;55.748;48.752;2022-10-16T00:16:24;100426.06;;;2.86;80.53
42603;BME280;28233;55.748;48.752;2022-10-16T00:18:28;100432.56;;;2.85;80.48
42603;BME280;28233;55.748;48.752;2022-10-16T00:20:34;100420.06;;;2.84;80.57
42603;BME280;28233;55.748;48.752;2022-10-16T00:22:55;100432.22;;;2.82;80.79
42603;BME280;28233;55.748;48.752;2022-10-16T00:24:58;100441.97;;;2.78;80.69
42603;BME280;28233;55.748;48.752;2022-10-16T00:27:01;100436.03;;;2.81;80.68
42603;BME280;28233;55.748;48.752;2022-10-16T00:29:04;100439.78;;;2.80;80.65
42603;BME280;28233;55.748;48.752;2022-10-16T00:31:10;100430.84;;;2.79;80.74
42603;BME280;28233;55.748;48.752;2022-10-16T00:33:13;100436.53;;;2.78;80.72
42603;BME280;28233;55.748;48.752;2022-10-16T00:35:16;100428.28;;;2.72;80.86
42603;BME280;28233;55.748;48.752;2022-10-16T00:37:19;100439.72;;;2.74;81.33
42603;BME280;28233;55.748;48.752;2022-10-16T00:39:21;100439.41;;;2.71;81.17
42603;BME280;28233;55.748;48.752;2022-10-16T00:41:25;100433.63;;;2.67;81.58
42603;BME280;28233;55.748;48.752;2022-10-16T00:45:38;100448.22;;;2.61;81.39
42603;BME280;28233;55.748;48.752;2022-10-16T00:47:43;100441.69;;;2.62;81.94
42603;BME280;28233;55.748;48.752;2022-10-16T00:49:52;100448.44;;;2.60;81.58
42603;BME280;28233;55.748;48.752;2022-10-16T00:51:56;100442.44;;;2.58;82.14
42603;BME280;28233;55.748;48.752;2022-10-16T00:53:59;100444.34;;;2.57;82.28
42603;BME280;28233;55.748;48.752;2022-10-16T00:56:04;100448.94;;;2.57;82.52
42603;BME280;28233;55.748;48.752;2022-10-16T00:58:07;100450.81;;;2.56;82.04
42603;BME280;28233;55.748;48.752;2022-10-16T01:00:14;100446.38;;;2.50;82.61
42603;BME280;28233;55.748;48.752;2022-10-16T01:02:18;100453.13;;;2.47;82.37
42603;BME280;28233;55.748;48.752;2022-10-16T01:04:21;100452.03;;;2.48;83.17
42603;BME280;28233;55.748;48.752;2022-10-16T01:06:39;100446.84;;;2.47;83.08
42603;BME280;28233;55.748;48.752;2022-10-16T01:11:35;100451.06;;;2.38;83.46
42603;BME280;28233;55.748;48.752;2022-10-16T01:13:45;100457.53;;;2.37;83.25
42603;BME280;28233;55.748;48.752;2022-10-16T01:20:29;100455.66;;;2.37;83.27
42603;BME280;28233;55.748;48.752;2022-10-16T01:25:00;100463.38;;;2.28;83.36
42603;BME280;28233;55.748;48.752;2022-10-16T01:27:10;100465.75;;;2.25;83.54
42603;BME280;28233;55.748;48.752;2022-10-16T01:31:26;100468.38;;;2.20;83.86
42603;BME280;28233;55.748;48.752;2022-10-16T01:33:42;100461.19;;;2.14;83.98
42603;BME280;28233;55.748;48.752;2022-10-16T01:35:49;100466.63;;;2.14;84.41
42603;BME280;28233;55.748;48.752;2022-10-16T01:38:06;100467.19;;;2.16;84.59
42603;BME280;28233;55.748;48.752;2022-10-16T01:40:15;100468.84;;;2.17;84.66
42603;BME280;28233;55.748;48.752;2022-10-16T01:42:23;100467.78;;;2.18;84.85
42603;BME280;28233;55.748;48.752;2022-10-16T01:44:31;100467.19;;;2.16;85.17
42603;BME280;28233;55.748;48.752;2022-10-16T01:46:37;100477.53;;;2.19;85.17
42603;BME280;28233;55.748;48.752;2022-10-16T01:48:41;100481.44;;;2.23;84.99
42603;BME280;28233;55.748;48.752;2022-10-16T01:50:54;100476.50;;;2.20;85.15
42603;BME280;28233;55.748;48.752;2022-10-16T01:52:58;100480.84;;;2.21;84.94
42603;BME280;28233;55.748;48.752;2022-10-16T01:55:03;100477.53;;;2.19;85.43
42603;BME280;28233;55.748;48.752;2022-10-16T01:57:08;100471.44;;;2.11;85.40
42603;BME280;28233;55.748;48.752;2022-10-16T01:59:14;100471.13;;;2.08;85.36
42603;BME280;28233;55.748;48.752;2022-10-16T02:01:20;100475.16;;;2.05;85.99
42603;BME280;28233;55.748;48.752;2022-10-16T02:03:24;100472.09;;;2.02;86.50
42603;BME280;28233;55.748;48.752;2022-10-16T02:05:40;100479.97;;;2.03;86.33
42603;BME280;28233;55.748;48.752;2022-10-16T02:07:44;100480.47;;;2.00;86.30
42603;BME280;28233;55.748;48.752;2022-10-16T02:09:47;100480.72;;;1.99;86.20
42603;BME280;28233;55.748;48.752;2022-10-16T02:11:52;100484.25;;;1.99;86.79
42603;BME280;28233;55.748;48.752;2022-10-16T02:14:03;100485.31;;;1.98;87.34
42603;BME280;28233;55.748;48.752;2022-10-16T02:16:07;100484.50;;;1.98;86.89
42603;BME280;28233;55.748;48.752;2022-10-16T02:18:10;100495.34;;;1.98;86.95
42603;BME280;28233;55.748;48.752;2022-10-16T02:20:13;100491.78;;;1.97;86.79
42603;BME280;28233;55.748;48.752;2022-10-16T02:22:20;100485.22;;;1.93;87.01
42603;BME280;28233;55.748;48.752;2022-10-16T02:24:33;100485.44;;;1.92;87.22
42603;BME280;28233;55.748;48.752;2022-10-16T02:26:49;100481.25;;;1.84;87.15
42603;BME280;28233;55.748;48.752;2022-10-16T02:28:57;100486.66;;;1.84;87.35
42603;BME280;28233;55.748;48.752;2022-10-16T02:31:04;100477.84;;;1.77;87.30
42603;BME280;28233;55.748;48.752;2022-10-16T02:33:11;100483.25;;;1.77;87.77
42603;BME280;28233;55.748;48.752;2022-10-16T02:35:17;100487.84;;;1.76;88.38
42603;BME280;28233;55.748;48.752;2022-10-16T02:37:21;100481.84;;;1.74;88.44
42603;BME280;28233;55.748;48.752;2022-10-16T02:39:24;100483.50;;;1.75;88.00
42603;BME280;28233;55.748;48.752;2022-10-16T02:41:27;100488.09;;;1.75;88.08
42603;BME280;28233;55.748;48.752;2022-10-16T02:43:30;100480.56;;;1.77;88.80
42603;BME280;28233;55.748;48.752;2022-10-16T02:45:32;100487.97;;;1.81;88.98
42603;BME280;28233;55.748;48.752;2022-10-16T02:47:35;100484.75;;;1.84;88.81
42603;BME280;28233;55.748;48.752;2022-10-16T02:49:38;100479.34;;;1.84;88.23
42603;BME280;28233;55.748;48.752;2022-10-16T02:51:41;100484.88;;;1.89;88.99
42603;BME280;28233;55.748;48.752;2022-10-16T02:53:43;100492.75;;;1.91;88.43
42603;BME280;28233;55.748;48.752;2022-10-16T02:55:46;100495.69;;;1.89;88.08
42603;BME280;28233;55.748;48.752;2022-10-16T02:57:49;100500.16;;;1.96;88.61
42603;BME280;28233;55.748;48.752;2022-10-16T02:59:52;100498.88;;;1.98;88.17
42603;BME280;28233;55.748;48.752;2022-10-16T03:01:54;100502.97;;;2.01;88.20
42603;BME280;28233;55.748;48.752;2022-10-16T03:03:57;100499.53;;;2.05;88.34
42603;BME280;28233;55.748;48.752;2022-10-16T03:05:59;100506.59;;;2.06;88.39
42603;BME280;28233;55.748;48.752;2022-10-16T03:08:02;100510.47;;;2.10;88.27
42603;BME280;28233;55.748;48.752;2022-10-16T03:10:05;100510.56;;;2.16;88.38
42603;BME280;28233;55.748;48.752;2022-10-16T03:12:08;100516.59;;;2.18;87.87
42603;BME280;28233;55.748;48.752;2022-10-16T03:14:11;100519.66;;;2.21;87.91
42603;BME280;28233;55.748;48.752;2022-10-16T03:16:13;100509.13;;;2.25;87.29
42603;BME280;28233;55.748;48.752;2022-10-16T03:18:16;100517.84;;;2.27;87.46
42603;BME280;28233;55.748;48.752;2022-10-16T03:20:18;100513.59;;;2.31;86.98
42603;BME280;28233;55.748;48.752;2022-10-16T03:22:21;100508.50;;;2.35;87.46
42603;BME280;28233;55.748;48.752;2022-10-16T03:24:24;100502.75;;;2.31;86.89
42603;BME280;28233;55.748;48.752;2022-10-16T03:26:26;100513.91;;;2.35;86.56
42603;BME280;28233;55.748;48.752;2022-10-16T03:28:29;100507.75;;;2.39;86.83
42603;BME280;28233;55.748;48.752;2022-10-16T03:30:32;100520.84;;;2.42;86.72
42603;BME280;28233;55.748;48.752;2022-10-16T03:32:34;100518.22;;;2.47;86.27
42603;BME280;28233;55.748;48.752;2022-10-16T03:34:42;100512.06;;;2.52;86.52
42603;BME280;28233;55.748;48.752;2022-10-16T03:36:44;100513.47;;;2.54;86.24
42603;BME280;28233;55.748;48.752;2022-10-16T03:38:47;100514.06;;;2.57;86.10
42603;BME280;28233;55.748;48.752;2022-10-16T03:40:50;100514.38;;;2.60;85.76
42603;BME280;28233;55.748;48.752;2022-10-16T03:42:52;100523.09;;;2.62;85.38
42603;BME280;28233;55.748;48.752;2022-10-16T03:44:57;100517.19;;;2.65;85.15
42603;BME280;28233;55.748;48.752;2022-10-16T03:47:00;100527.28;;;2.70;85.13
42603;BME280;28233;55.748;48.752;2022-10-16T03:49:02;100524.94;;;2.73;85.16
42603;BME280;28233;55.748;48.752;2022-10-16T03:51:10;100522.28;;;2.79;84.73
42603;BME280;28233;55.748;48.752;2022-10-16T03:53:14;100524.19;;;2.78;84.81
42603;BME280;28233;55.748;48.752;2022-10-16T03:55:16;100525.31;;;2.82;84.26
42603;BME280;28233;55.748;48.752;2022-10-16T03:57:19;100527.31;;;2.87;84.31
42603;BME280;28233;55.748;48.752;2022-10-16T03:59:23;100526.56;;;2.91;83.80
42603;BME280;28233;55.748;48.752;2022-10-16T04:01:25;100525.28;;;2.94;83.86
42603;BME280;28233;55.748;48.752;2022-10-16T04:03:28;100520.09;;;2.92;83.16
42603;BME280;28233;55.748;48.752;2022-10-16T04:05:31;100528.66;;;3.01;83.21
42603;BME280;28233;55.748;48.752;2022-10-16T04:07:34;100530.63;;;3.06;83.23
42603;BME280;28233;55.748;48.752;2022-10-16T04:09:36;100531.03;;;3.14;82.66
42603;BME280;28233;55.748;48.752;2022-10-16T04:11:39;100518.84;;;3.17;82.53
42603;BME280;28233;55.748;48.752;2022-10-16T04:13:42;100532.25;;;3.24;82.53
42603;BME280;28233;55.748;48.752;2022-10-16T04:15:45;100529.94;;;3.32;82.23
42603;BME280;28233;55.748;48.752;2022-10-16T04:17:47;100531.91;;;3.37;81.60
42603;BME280;28233;55.748;48.752;2022-10-16T04:19:50;100527.63;;;3.41;81.83
42603;BME280;28233;55.748;48.752;2022-10-16T04:21:53;100533.38;;;3.45;80.98
42603;BME280;28233;55.748;48.752;2022-10-16T04:23:56;100535.34;;;3.49;80.86
42603;BME280;28233;55.748;48.752;2022-10-16T04:25:59;100534.34;;;3.55;81.01
42603;BME280;28233;55.748;48.752;2022-10-16T04:28:02;100540.91;;;3.59;80.63
42603;BME280;28233;55.748;48.752;2022-10-16T04:30:05;100535.25;;;3.61;80.46
42603;BME280;28233;55.748;48.752;2022-10-16T04:32:09;100547.25;;;3.65;80.47
42603;BME280;28233;55.748;48.752;2022-10-16T04:34:11;100545.34;;;3.66;80.23
42603;BME280;28233;55.748;48.752;2022-10-16T04:36:14;100550.22;;;3.64;80.15
42603;BME280;28233;55.748;48.752;2022-10-16T04:38:17;100549.97;;;3.65;80.51
42603;BME280;28233;55.748;48.752;2022-10-16T04:40:19;100565.19;;;3.66;80.92
42603;BME280;28233;55.748;48.752;2022-10-16T04:42:22;100563.31;;;3.67;80.37
42603;BME280;28233;55.748;48.752;2022-10-16T04:44:25;100557.88;;;3.67;80.39
42603;BME280;28233;55.748;48.752;2022-10-16T04:46:27;100557.03;;;3.66;80.19
42603;BME280;28233;55.748;48.752;2022-10-16T04:48:31;100559.47;;;3.63;80.23
42603;BME280;28233;55.748;48.752;2022-10-16T04:50:33;100559.69;;;3.61;80.26
42603;BME280;28233;55.748;48.752;2022-10-16T04:52:36;100561.84;;;3.59;80.37
42603;BME280;28233;55.748;48.752;2022-10-16T04:54:39;100560.78;;;3.60;80.80
42603;BME280;28233;55.748;48.752;2022-10-16T04:56:42;100558.63;;;3.62;80.65
42603;BME280;28233;55.748;48.752;2022-10-16T04:58:53;100566.22;;;3.60;80.36
42603;BME280;28233;55.748;48.752;2022-10-16T05:00:55;100561.84;;;3.59;80.30
42603;BME280;28233;55.748;48.752;2022-10-16T05:02:58;100561.03;;;3.58;80.12
42603;BME280;28233;55.748;48.752;2022-10-16T05:05:03;100568.38;;;3.58;80.18
42603;BME280;28233;55.748;48.752;2022-10-16T05:07:05;100568.59;;;3.56;80.01
42603;BME280;28233;55.748;48.752;2022-10-16T05:09:08;100565.06;;;3.56;80.25
42603;BME280;28233;55.748;48.752;2022-10-16T05:11:11;100560.69;;;3.55;80.36
42603;BME280;28233;55.748;48.752;2022-10-16T05:13:13;100564.50;;;3.54;80.36
42603;BME280;28233;55.748;48.752;2022-10-16T05:15:16;100562.84;;;3.53;80.49
42603;BME280;28233;55.748;48.752;2022-10-16T05:17:19;100576.44;;;3.53;80.13
42603;BME280;28233;55.748;48.752;2022-10-16T05:19:21;100570.16;;;3.52;80.59
42603;BME280;28233;55.748;48.752;2022-10-16T05:21:29;100572.63;;;3.54;81.11
42603;BME280;28233;55.748;48.752;2022-10-16T05:23:32;100572.63;;;3.54;80.45
42603;BME280;28233;55.748;48.752;2022-10-16T05:25:34;100577.09;;;3.60;80.58
42603;BME280;28233;55.748;48.752;2022-10-16T05:27:37;100569.81;;;3.66;80.48
42603;BME280;28233;55.748;48.752;2022-10-16T05:29:40;100576.13;;;3.71;80.19
42603;BME280;28233;55.748;48.752;2022-10-16T05:31:42;100577.81;;;3.72;80.00
42603;BME280;28233;55.748;48.752;2022-10-16T05:33:45;100571.84;;;3.75;80.21
42603;BME280;28233;55.748;48.752;2022-10-16T05:35:48;100579.78;;;3.77;80.50
42603;BME280;28233;55.748;48.752;2022-10-16T05:37:52;100579.59;;;3.84;80.52
42603;BME280;28233;55.748;48.752;2022-10-16T05:39:55;100582.84;;;3.86;80.53
42603;BME280;28233;55.748;48.752;2022-10-16T05:41:57;100586.16;;;3.88;80.51
42603;BME280;28233;55.748;48.752;2022-10-16T05:44:04;100589.44;;;3.90;80.45
42603;BME280;28233;55.748;48.752;2022-10-16T05:46:06;100584.59;;;3.92;80.26
42603;BME280;28233;55.748;48.752;2022-10-16T05:48:09;100585.97;;;3.94;80.14
42603;BME280;28233;55.748;48.752;2022-10-16T05:50:12;100587.94;;;3.99;79.72
42603;BME280;28233;55.748;48.752;2022-10-16T05:52:14;100590.41;;;4.00;79.41
42603;BME280;28233;55.748;48.752;2022-10-16T05:54:17;100592.38;;;4.05;79.23
42603;BME280;28233;55.748;48.752;2022-10-16T05:56:19;100599.50;;;4.11;79.28
42603;BME280;28233;55.748;48.752;2022-10-16T05:58:28;100594.97;;;4.17;79.52
42603;BME280;28233;55.748;48.752;2022-10-16T06:00:31;100598.91;;;4.26;79.41
42603;BME280;28233;55.748;48.752;2022-10-16T06:02:34;100589.66;;;4.27;78.77
42603;BME280;28233;55.748;48.752;2022-10-16T06:04:37;100595.53;;;4.41;79.30
42603;BME280;28233;55.748;48.752;2022-10-16T06:06:40;100593.50;;;4.53;78.94
42603;BME280;28233;55.748;48.752;2022-10-16T06:08:44;100607.22;;;4.63;78.15
42603;BME280;28233;55.748;48.752;2022-10-16T06:10:47;100598.03;;;4.70;78.20
42603;BME280;28233;55.748;48.752;2022-10-16T06:12:50;100599.16;;;4.74;78.03
42603;BME280;28233;55.748;48.752;2022-10-16T06:14:53;100598.66;;;4.77;77.92
42603;BME280;28233;55.748;48.752;2022-10-16T06:16:56;100609.09;;;4.85;78.05
42603;BME280;28233;55.748;48.752;2022-10-16T06:18:58;100612.09;;;4.88;77.50
42603;BME280;28233;55.748;48.752;2022-10-16T06:21:14;100611.25;;;4.83;77.41
42603;BME280;28233;55.748;48.752;2022-10-16T06:23:18;100613.91;;;4.78;77.36
42603;BME280;28233;55.748;48.752;2022-10-16T06:25:21;100609.25;;;4.73;77.65
42603;BME280;28233;55.748;48.752;2022-10-16T06:27:23;100612.78;;;4.74;77.88
42603;BME280;28233;55.748;48.752;2022-10-16T06:29:27;100614.88;;;4.66;77.96
42603;BME280;28233;55.748;48.752;2022-10-16T06:31:30;100612.09;;;4.61;78.14
42603;BME280;28233;55.748;48.752;2022-10-16T06:33:36;100628.63;;;4.55;78.06
42603;BME280;28233;55.748;48.752;2022-10-16T06:35:39;100614.44;;;4.53;78.42
42603;BME280;28233;55.748;48.752;2022-10-16T06:37:42;100613.13;;;4.55;78.42
42603;BME280;28233;55.748;48.752;2022-10-16T06:39:44;100612.97;;;4.67;78.71
42603;BME280;28233;55.748;48.752;2022-10-16T06:41:47;100612.22;;;4.72;78.98
42603;BME280;28233;55.748;48.752;2022-10-16T06:43:50;100616.31;;;4.74;78.62
42603;BME280;28233;55.748;48.752;2022-10-16T06:45:55;100618.78;;;4.76;79.07
42603;BME280;28233;55.748;48.752;2022-10-16T06:47:58;100620.69;;;4.75;78.65
42603;BME280;28233;55.748;48.752;2022-10-16T06:50:01;100621.75;;;4.74;78.78
42603;BME280;28233;55.748;48.752;2022-10-16T06:52:04;100616.31;;;4.74;78.84
42603;BME280;28233;55.748;48.752;2022-10-16T06:54:07;100612.31;;;4.82;79.03
42603;BME280;28233;55.748;48.752;2022-10-16T06:56:21;100627.44;;;4.95;78.76
42603;BME280;28233;55.748;48.752;2022-10-16T06:58:25;100629.09;;;5.01;78.56
42603;BME280;28233;55.748;48.752;2022-10-16T07:00:27;100621.56;;;5.08;79.10
42603;BME280;28233;55.748;48.752;2022-10-16T07:02:30;100622.47;;;5.19;78.50
42603;BME280;28233;55.748;48.752;2022-10-16T07:04:33;100613.31;;;5.30;78.26
42603;BME280;28233;55.748;48.752;2022-10-16T07:06:36;100628.91;;;5.40;77.85
42603;BME280;28233;55.748;48.752;2022-10-16T07:08:40;100623.28;;;5.51;77.37
42603;BME280;28233;55.748;48.752;2022-10-16T07:10:43;100629.09;;;5.60;77.40
42603;BME280;28233;55.748;48.752;2022-10-16T07:12:46;100623.94;;;5.69;77.62
42603;BME280;28233;55.748;48.752;2022-10-16T07:14:49;100626.75;;;5.79;77.14
42603;BME280;28233;55.748;48.752;2022-10-16T07:16:54;100624.38;;;5.88;77.27
42603;BME280;28233;55.748;48.752;2022-10-16T07:18:58;100626.88;;;5.95;76.77
42603;BME280;28233;55.748;48.752;2022-10-16T07:21:10;100628.56;;;6.01;76.51
42603;BME280;28233;55.748;48.752;2022-10-16T07:23:13;100620.94;;;6.08;76.61
42603;BME280;28233;55.748;48.752;2022-10-16T07:25:16;100620.41;;;6.11;76.59
42603;BME280;28233;55.748;48.752;2022-10-16T07:27:18;100628.94;;;6.25;76.82
42603;BME280;28233;55.748;48.752;2022-10-16T07:29:21;100623.81;;;6.33;76.34
42603;BME280;28233;55.748;48.752;2022-10-16T07:31:24;100628.19;;;6.40;76.44
42603;BME280;28233;55.748;48.752;2022-10-16T07:33:28;100632.31;;;6.42;75.80
42603;BME280;28233;55.748;48.752;2022-10-16T07:35:31;100633.41;;;6.46;75.61
42603;BME280;28233;55.748;48.752;2022-10-16T07:37:33;100629.88;;;6.51;75.52
42603;BME280;28233;55.748;48.752;2022-10-16T07:39:36;100640.28;;;6.59;75.98
42603;BME280;28233;55.748;48.752;2022-10-16T07:41:39;100640.88;;;6.66;75.43
42603;BME280;28233;55.748;48.752;2022-10-16T07:43:50;100634.31;;;6.72;74.92
42603;BME280;28233;55.748;48.752;2022-10-16T07:45:53;100632.69;;;6.76;74.38
42603;BME280;28233;55.748;48.752;2022-10-16T07:47:59;100631.63;;;6.83;74.70
42603;BME280;28233;55.748;48.752;2022-10-16T07:50:02;100643.94;;;6.90;74.47
42603;BME280;28233;55.748;48.752;2022-10-16T07:52:04;100630.25;;;6.90;73.70
42603;BME280;28233;55.748;48.752;2022-10-16T07:54:11;100645.34;;;7.03;73.81
42603;BME280;28233;55.748;48.752;2022-10-16T07:56:14;100644.22;;;7.09;73.62
42603;BME280;28233;55.748;48.752;2022-10-16T07:58:17;100645.91;;;7.20;73.73
42603;BME280;28233;55.748;48.752;2022-10-16T08:00:19;100640.72;;;7.29;73.34
42603;BME280;28233;55.748;48.752;2022-10-16T08:02:22;100646.44;;;7.38;73.14
42603;BME280;28233;55.748;48.752;2022-10-16T08:04:25;100651.38;;;7.46;73.07
42603;BME280;28233;55.748;48.752;2022-10-16T08:06:28;100644.81;;;7.57;73.14
42603;BME280;28233;55.748;48.752;2022-10-16T08:08:30;100643.72;;;7.63;72.84
42603;BME280;28233;55.748;48.752;2022-10-16T08:10:33;100655.75;;;7.68;72.55
42603;BME280;28233;55.748;48.752;2022-10-16T08:12:36;100651.38;;;7.72;72.23
42603;BME280;28233;55.748;48.752;2022-10-16T08:14:39;100646.16;;;7.80;72.12
42603;BME280;28233;55.748;48.752;2022-10-16T08:16:47;100644.78;;;7.88;71.67
42603;BME280;28233;55.748;48.752;2022-10-16T08:18:50;100643.13;;;7.87;71.45
42603;BME280;28233;55.748;48.752;2022-10-16T08:20:58;100650.25;;;7.88;71.80
42603;BME280;28233;55.748;48.752;2022-10-16T08:23:02;100642.03;;;7.93;71.76
42603;BME280;28233;55.748;48.752;2022-10-16T08:25:05;100638.19;;;7.99;71.14
42603;BME280;28233;55.748;48.752;2022-10-16T08:27:08;100636.81;;;7.97;71.36
42603;BME280;28233;55.748;48.752;2022-10-16T08:29:11;100636.56;;;7.93;71.14
42603;BME280;28233;55.748;48.752;2022-10-16T08:31:15;100643.13;;;7.97;70.85
42603;BME280;28233;55.748;48.752;2022-10-16T08:33:23;100646.69;;;7.98;71.17
42603;BME280;28233;55.748;48.752;2022-10-16T08:35:26;100643.13;;;8.02;71.36
42603;BME280;28233;55.748;48.752;2022-10-16T08:37:32;100640.91;;;7.99;70.85
42603;BME280;28233;55.748;48.752;2022-10-16T08:39:35;100637.09;;;8.05;70.81
42603;BME280;28233;55.748;48.752;2022-10-16T08:46:55;100643.03;;;8.23;70.88
42603;BME280;28233;55.748;48.752;2022-10-16T08:49:09;100643.03;;;8.23;70.60
42603;BME280;28233;55.748;48.752;2022-10-16T08:51:31;100631.81;;;8.24;70.58
42603;BME280;28233;55.748;48.752;2022-10-16T08:53:46;100640.03;;;8.30;70.13
42603;BME280;28233;55.748;48.752;2022-10-16T08:55:52;100635.91;;;8.37;70.75
42603;BME280;28233;55.748;48.752;2022-10-16T08:57:55;100639.19;;;8.44;70.31
42603;BME280;28233;55.748;48.752;2022-10-16T09:00:12;100634.22;;;8.57;70.35
42603;BME280;28233;55.748;48.752;2022-10-16T09:02:49;100636.88;;;8.67;70.07
42603;BME280;28233;55.748;48.752;2022-10-16T09:07:49;100628.84;;;8.86;69.46
42603;BME280;28233;55.748;48.752;2022-10-16T09:12:24;100615.25;;;9.10;69.05
42603;BME280;28233;55.748;48.752;2022-10-16T09:16:46;100632.63;;;9.35;68.61
42603;BME280;28233;55.748;48.752;2022-10-16T09:23:27;100629.38;;;9.91;66.62
42603;BME280;28233;55.748;48.752;2022-10-16T09:25:31;100630.25;;;10.10;65.64
42603;BME280;28233;55.748;48.752;2022-10-16T09:27:35;100621.88;;;10.26;65.45
42603;BME280;28233;55.748;48.752;2022-10-16T09:29:37;100603.72;;;10.25;64.31
42603;BME280;28233;55.748;48.752;2022-10-16T09:31:41;100635.63;;;10.50;63.48
42603;BME280;28233;55.748;48.752;2022-10-16T09:33:47;100627.31;;;10.55;63.52
42603;BME280;28233;55.748;48.752;2022-10-16T09:35:55;100630.81;;;10.61;63.32
42603;BME280;28233;55.748;48.752;2022-10-16T09:38:00;100634.44;;;10.56;63.39
42603;BME280;28233;55.748;48.752;2022-10-16T09:40:04;100623.22;;;10.52;63.58
42603;BME280;28233;55.748;48.752;2022-10-16T09:42:13;100626.56;;;10.49;63.83
42603;BME280;28233;55.748;48.752;2022-10-16T09:44:30;100627.59;;;10.53;63.62
42603;BME280;28233;55.748;48.752;2022-10-16T09:46:35;100633.41;;;10.52;64.31
42603;BME280;28233;55.748;48.752;2022-10-16T09:48:48;100630.81;;;10.61;64.23
42603;BME280;28233;55.748;48.752;2022-10-16T09:50:59;100608.72;;;10.47;63.67
42603;BME280;28233;55.748;48.752;2022-10-16T09:53:12;100629.44;;;10.58;63.95
42603;BME280;28233;55.748;48.752;2022-10-16T09:55:17;100627.22;;;10.60;64.35
42603;BME280;28233;55.748;48.752;2022-10-16T09:57:21;100630.16;;;10.69;64.31
42603;BME280;28233;55.748;48.752;2022-10-16T09:59:24;100630.69;;;10.71;64.24
42603;BME280;28233;55.748;48.752;2022-10-16T10:01:37;100630.00;;;10.79;63.08
42603;BME280;28233;55.748;48.752;2022-10-16T10:03:41;100635.50;;;10.79;63.63
42603;BME280;28233;55.748;48.752;2022-10-16T10:05:48;100631.88;;;10.84;63.78
42603;BME280;28233;55.748;48.752;2022-10-16T10:07:59;100626.06;;;10.85;63.14
42603;BME280;28233;55.748;48.752;2022-10-16T10:10:05;100629.28;;;10.92;63.05
42603;BME280;28233;55.748;48.752;2022-10-16T10:12:24;100628.38;;;10.97;62.54
42603;BME280;28233;55.748;48.752;2022-10-16T10:14:35;100632.47;;;10.99;62.66
42603;BME280;28233;55.748;48.752;2022-10-16T10:16:39;100629.81;;;10.94;62.91
42603;BME280;28233;55.748;48.752;2022-10-16T10:18:41;100638.84;;;10.95;63.45
42603;BME280;28233;55.748;48.752;2022-10-16T10:20:44;100634.41;;;10.99;63.54
42603;BME280;28233;55.748;48.752;2022-10-16T10:22:47;100634.41;;;10.99;63.08
42603;BME280;28233;55.748;48.752;2022-10-16T10:27:14;100634.56;;;11.08;63.45
42603;BME280;28233;55.748;48.752;2022-10-16T10:29:31;100627.13;;;11.08;63.77
42603;BME280;28233;55.748;48.752;2022-10-16T10:31:49;100633.44;;;11.09;63.42
42603;BME280;28233;55.748;48.752;2022-10-16T10:36:37;100643.84;;;11.12;63.48
42603;BME280;28233;55.748;48.752;2022-10-16T10:41:18;100634.84;;;10.87;63.82
42603;BME280;28233;55.748;48.752;2022-10-16T10:46:04;100631.31;;;10.63;64.41
42603;BME280;28233;55.748;48.752;2022-10-16T10:51:00;100640.84;;;10.70;64.71
42603;BME280;28233;55.748;48.752;2022-10-16T10:53:11;100633.59;;;10.79;64.61
42603;BME280;28233;55.748;48.752;2022-10-16T10:55:37;100633.66;;;10.93;64.25
42603;BME280;28233;55.748;48.752;2022-10-16T11:04:50;100634.78;;;11.11;63.27
42603;BME280;28233;55.748;48.752;2022-10-16T11:07:04;100629.50;;;10.96;63.88
42603;BME280;28233;55.748;48.752;2022-10-16T11:09:18;100644.44;;;11.09;63.78
42603;BME280;28233;55.748;48.752;2022-10-16T11:12:18;100643.91;;;11.07;63.41
42603;BME280;28233;55.748;48.752;2022-10-16T11:14:14;100649.41;;;11.07;64.44
42603;BME280;28233;55.748;48.752;2022-10-16T11:16:27;100643.47;;;10.99;64.16
42603;BME280;28233;55.748;48.752;2022-10-16T11:21:04;100642.72;;;10.94;63.89
42603;BME280;28233;55.748;48.752;2022-10-16T11:23:30;100650.16;;;10.93;64.24
42603;BME280;28233;55.748;48.752;2022-10-16T11:25:33;100647.91;;;10.95;64.33
42603;BME280;28233;55.748;48.752;2022-10-16T11:30:04;100648.97;;;11.18;64.86
42603;BME280;28233;55.748;48.752;2022-10-16T11:32:20;100649.47;;;11.39;64.93
42603;BME280;28233;55.748;48.752;2022-10-16T11:34:50;100649.72;;;11.57;63.64
42603;BME280;28233;55.748;48.752;2022-10-16T11:37:05;100641.50;;;11.71;62.43
42603;BME280;28233;55.748;48.752;2022-10-16T11:39:14;100641.03;;;11.82;62.70
42603;BME280;28233;55.748;48.752;2022-10-16T11:43:34;100642.56;;;11.75;62.04
42603;BME280;28233;55.748;48.752;2022-10-16T11:45:48;100652.84;;;11.69;62.36
42603;BME280;28233;55.748;48.752;2022-10-16T11:48:21;100645.97;;;11.53;61.08
42603;BME280;28233;55.748;48.752;2022-10-16T11:50:52;100655.88;;;11.35;61.99
42603;BME280;28233;55.748;48.752;2022-10-16T11:55:09;100641.81;;;11.36;62.90
42603;BME280;28233;55.748;48.752;2022-10-16T11:57:29;100640.47;;;11.53;62.36